sensor_id;sensor_type;location;lat;lon;timestamp;pressure;altitude;pressure_sealevel;temperature;humidity
22647;BME280;11490;42.726;23.268;2022-12-15T00:01:58;94392.47;;;2.80;100.00
22647;BME280;11490;42.726;23.268;2022-12-15T00:04:42;94361.00;;;2.53;100.00
22647;BME280;11490;42.726;23.268;2022-12-15T00:07:26;94375.47;;;2.76;100.00
22647;BME280;11490;42.726;23.268;2022-12-15T00:10:09;94405.13;;;2.51;100.00
22647;BME280;11490;42.726;23.268;2022-12-15T00:12:53;94398.03;;;2.58;100.00
22647;BME280;11490;42.726;23.268;2022-12-15T00:15:37;94415.16;;;2.81;100.00
22647;BME280;11490;42.726;23.268;2022-12-15T00:18:21;94439.38;;;2.96;100.00
22647;BME280;11490;42.726;23.268;2022-12-15T00:21:05;94431.69;;;3.01;100.00
22647;BME280;11490;42.726;23.268;2022-12-15T00:23:49;94448.25;;;3.08;100.00
22647;BME280;11490;42.726;23.268;2022-12-15T00:26:33;94459.56;;;3.15;100.00
22647;BME280;11490;42.726;23.268;2022-12-15T00:29:17;94463.44;;;3.06;100.00
22647;BME280;11490;42.726;23.268;2022-12-15T00:32:00;94422.94;;;2.62;100.00
22647;BME280;11490;42.726;23.268;2022-12-15T00:34:44;94442.81;;;2.45;100.00
22647;BME280;11490;42.726;23.268;2022-12-15T00:37:28;94433.75;;;2.21;100.00
22647;BME280;11490;42.726;23.268;2022-12-15T00:40:12;94418.16;;;2.20;100.00
22647;BME280;11490;42.726;23.268;2022-12-15T00:42:38;94428.28;;;2.29;100.00
22647;BME280;11490;42.726;23.268;2022-12-15T00:45:04;94413.75;;;2.07;100.00
22647;BME280;11490;42.726;23.268;2022-12-15T00:47:31;94415.75;;;2.12;100.00
22647;BME280;11490;42.726;23.268;2022-12-15T00:49:59;94338.56;;;1.73;100.00
22647;BME280;11490;42.726;23.268;2022-12-15T00:52:52;94372.88;;;2.05;100.00
22647;BME280;11490;42.726;23.268;2022-12-15T00:55:49;94314.31;;;1.65;100.00
22647;BME280;11490;42.726;23.268;2022-12-15T00:58:32;94376.16;;;1.80;100.00
22647;BME280;11490;42.726;23.268;2022-12-15T01:01:16;94365.66;;;1.80;100.00
22647;BME280;11490;42.726;23.268;2022-12-15T01:04:00;94371.72;;;1.81;100.00
22647;BME280;11490;42.726;23.268;2022-12-15T01:06:44;94347.66;;;1.77;100.00
22647;BME280;11490;42.726;23.268;2022-12-15T01:09:28;94345.84;;;1.84;100.00
22647;BME280;11490;42.726;23.268;2022-12-15T01:12:12;94369.25;;;2.06;100.00
22647;BME280;11490;42.726;23.268;2022-12-15T01:14:56;94373.72;;;1.99;100.00
22647;BME280;11490;42.726;23.268;2022-12-15T01:17:40;94348.19;;;2.12;100.00
22647;BME280;11490;42.726;23.268;2022-12-15T01:20:24;94378.53;;;2.15;100.00
22647;BME280;11490;42.726;23.268;2022-12-15T01:22:51;94381.31;;;2.26;100.00
22647;BME280;11490;42.726;23.268;2022-12-15T01:25:18;94377.72;;;2.21;100.00
22647;BME280;11490;42.726;23.268;2022-12-15T01:27:44;94369.59;;;2.29;100.00
22647;BME280;11490;42.726;23.268;2022-12-15T01:30:12;94340.47;;;2.17;100.00
22647;BME280;11490;42.726;23.268;2022-12-15T01:32:38;94373.28;;;2.15;100.00
22647;BME280;11490;42.726;23.268;2022-12-15T01:35:05;94355.31;;;1.99;100.00
22647;BME280;11490;42.726;23.268;2022-12-15T01:37:31;94367.84;;;1.97;100.00
22647;BME280;11490;42.726;23.268;2022-12-15T01:39:56;94356.34;;;1.84;100.00
22647;BME280;11490;42.726;23.268;2022-12-15T01:43:00;94353.50;;;1.92;100.00
22647;BME280;11490;42.726;23.268;2022-12-15T01:47:54;94356.31;;;1.98;100.00
22647;BME280;11490;42.726;23.268;2022-12-15T01:50:22;94356.72;;;1.94;100.00
22647;BME280;11490;42.726;23.268;2022-12-15T01:52:48;94345.81;;;1.98;100.00
22647;BME280;11490;42.726;23.268;2022-12-15T01:55:16;94318.72;;;1.90;100.00
22647;BME280;11490;42.726;23.268;2022-12-15T01:57:43;94329.63;;;2.01;100.00
22647;BME280;11490;42.726;23.268;2022-12-15T02:00:11;94308.19;;;1.90;100.00
22647;BME280;11490;42.726;23.268;2022-12-15T02:02:37;94296.84;;;1.97;100.00
22647;BME280;11490;42.726;23.268;2022-12-15T02:05:04;94306.50;;;2.09;100.00
22647;BME280;11490;42.726;23.268;2022-12-15T02:07:29;94311.31;;;2.32;100.00
22647;BME280;11490;42.726;23.268;2022-12-15T02:09:58;94336.00;;;2.31;100.00
22647;BME280;11490;42.726;23.268;2022-12-15T02:12:33;94327.53;;;2.22;100.00
22647;BME280;11490;42.726;23.268;2022-12-15T02:20:31;94309.91;;;2.67;100.00
22647;BME280;11490;42.726;23.268;2022-12-15T02:29:09;94301.59;;;2.70;100.00
22647;BME280;11490;42.726;23.268;2022-12-15T02:31:44;94316.03;;;2.61;100.00
22647;BME280;11490;42.726;23.268;2022-12-15T02:34:39;94294.84;;;2.81;100.00
22647;BME280;11490;42.726;23.268;2022-12-15T02:37:18;94307.44;;;2.72;100.00
22647;BME280;11490;42.726;23.268;2022-12-15T02:39:45;94311.41;;;2.50;100.00
22647;BME280;11490;42.726;23.268;2022-12-15T02:42:11;94301.34;;;2.79;100.00
22647;BME280;11490;42.726;23.268;2022-12-15T02:44:55;94306.50;;;2.60;100.00
22647;BME280;11490;42.726;23.268;2022-12-15T02:47:44;94337.38;;;2.85;100.00
22647;BME280;11490;42.726;23.268;2022-12-15T02:50:33;94352.47;;;2.58;100.00
22647;BME280;11490;42.726;23.268;2022-12-15T03:03:42;94323.19;;;2.86;100.00
22647;BME280;11490;42.726;23.268;2022-12-15T03:06:10;94337.06;;;2.99;100.00
22647;BME280;11490;42.726;23.268;2022-12-15T03:08:38;94301.50;;;2.84;100.00
22647;BME280;11490;42.726;23.268;2022-12-15T03:11:03;94319.75;;;3.10;100.00
22647;BME280;11490;42.726;23.268;2022-12-15T03:13:29;94342.88;;;3.08;100.00
22647;BME280;11490;42.726;23.268;2022-12-15T03:15:55;94333.97;;;3.09;100.00
22647;BME280;11490;42.726;23.268;2022-12-15T03:18:22;94344.06;;;3.12;100.00
22647;BME280;11490;42.726;23.268;2022-12-15T03:20:47;94350.84;;;3.26;100.00
22647;BME280;11490;42.726;23.268;2022-12-15T03:23:14;94324.94;;;3.23;100.00
22647;BME280;11490;42.726;23.268;2022-12-15T03:25:39;94342.50;;;3.04;100.00
22647;BME280;11490;42.726;23.268;2022-12-15T03:28:05;94347.72;;;3.11;100.00
22647;BME280;11490;42.726;23.268;2022-12-15T03:30:30;94335.16;;;3.13;100.00
22647;BME280;11490;42.726;23.268;2022-12-15T03:32:56;94345.00;;;2.93;100.00
22647;BME280;11490;42.726;23.268;2022-12-15T03:35:21;94341.63;;;3.10;100.00
22647;BME280;11490;42.726;23.268;2022-12-15T03:37:46;94333.38;;;3.07;100.00
22647;BME280;11490;42.726;23.268;2022-12-15T03:40:12;94315.69;;;3.14;100.00
22647;BME280;11490;42.726;23.268;2022-12-15T03:42:38;94322.84;;;3.07;100.00
22647;BME280;11490;42.726;23.268;2022-12-15T03:45:17;94357.50;;;3.04;100.00
22647;BME280;11490;42.726;23.268;2022-12-15T03:47:44;94357.44;;;3.17;100.00
22647;BME280;11490;42.726;23.268;2022-12-15T03:50:11;94354.00;;;3.10;100.00
22647;BME280;11490;42.726;23.268;2022-12-15T03:52:37;94358.22;;;3.18;100.00
22647;BME280;11490;42.726;23.268;2022-12-15T03:55:03;94373.25;;;3.10;100.00
22647;BME280;11490;42.726;23.268;2022-12-15T03:57:29;94368.53;;;2.88;100.00
22647;BME280;11490;42.726;23.268;2022-12-15T03:59:54;94359.09;;;3.05;100.00
22647;BME280;11490;42.726;23.268;2022-12-15T04:02:20;94374.06;;;3.11;100.00
22647;BME280;11490;42.726;23.268;2022-12-15T04:04:45;94376.78;;;2.98;100.00
22647;BME280;11490;42.726;23.268;2022-12-15T04:07:11;94361.59;;;3.00;100.00
22647;BME280;11490;42.726;23.268;2022-12-15T04:09:36;94359.00;;;3.18;100.00
22647;BME280;11490;42.726;23.268;2022-12-15T04:12:02;94370.50;;;2.99;100.00
22647;BME280;11490;42.726;23.268;2022-12-15T04:14:30;94360.69;;;3.13;100.00
22647;BME280;11490;42.726;23.268;2022-12-15T04:16:55;94351.63;;;2.64;100.00
22647;BME280;11490;42.726;23.268;2022-12-15T04:19:21;94345.84;;;2.87;100.00
22647;BME280;11490;42.726;23.268;2022-12-15T04:22:05;94393.09;;;3.13;100.00
22647;BME280;11490;42.726;23.268;2022-12-15T04:24:31;94378.03;;;2.89;100.00
22647;BME280;11490;42.726;23.268;2022-12-15T04:27:15;94372.72;;;2.57;100.00
22647;BME280;11490;42.726;23.268;2022-12-15T04:29:59;94373.44;;;2.78;100.00
22647;BME280;11490;42.726;23.268;2022-12-15T04:32:43;94361.38;;;2.95;100.00
22647;BME280;11490;42.726;23.268;2022-12-15T04:35:27;94364.88;;;2.89;100.00
22647;BME280;11490;42.726;23.268;2022-12-15T04:38:11;94365.19;;;3.05;100.00
22647;BME280;11490;42.726;23.268;2022-12-15T04:40:55;94366.03;;;2.99;100.00
22647;BME280;11490;42.726;23.268;2022-12-15T04:43:39;94358.66;;;3.15;100.00
22647;BME280;11490;42.726;23.268;2022-12-15T04:46:23;94371.19;;;3.19;100.00
22647;BME280;11490;42.726;23.268;2022-12-15T04:49:07;94363.09;;;3.14;100.00
22647;BME280;11490;42.726;23.268;2022-12-15T04:51:51;94363.00;;;3.27;100.00
22647;BME280;11490;42.726;23.268;2022-12-15T04:54:35;94376.78;;;3.29;100.00
22647;BME280;11490;42.726;23.268;2022-12-15T04:57:19;94393.75;;;3.40;100.00
22647;BME280;11490;42.726;23.268;2022-12-15T05:00:03;94404.84;;;3.17;100.00
22647;BME280;11490;42.726;23.268;2022-12-15T05:02:47;94420.22;;;3.20;100.00
22647;BME280;11490;42.726;23.268;2022-12-15T05:05:31;94420.13;;;3.33;100.00
22647;BME280;11490;42.726;23.268;2022-12-15T05:08:15;94417.06;;;3.36;100.00
22647;BME280;11490;42.726;23.268;2022-12-15T05:10:59;94414.44;;;3.36;100.00
22647;BME280;11490;42.726;23.268;2022-12-15T05:13:43;94416.47;;;3.34;100.00
22647;BME280;11490;42.726;23.268;2022-12-15T05:16:27;94438.97;;;3.37;100.00
22647;BME280;11490;42.726;23.268;2022-12-15T05:19:11;94444.03;;;3.38;100.00
22647;BME280;11490;42.726;23.268;2022-12-15T05:21:55;94471.25;;;3.32;100.00
22647;BME280;11490;42.726;23.268;2022-12-15T05:24:39;94456.28;;;3.20;100.00
22647;BME280;11490;42.726;23.268;2022-12-15T05:27:23;94470.19;;;3.33;100.00
22647;BME280;11490;42.726;23.268;2022-12-15T05:30:07;94487.34;;;3.49;100.00
22647;BME280;11490;42.726;23.268;2022-12-15T05:32:51;94481.88;;;3.51;100.00
22647;BME280;11490;42.726;23.268;2022-12-15T05:35:16;94486.81;;;3.40;100.00
22647;BME280;11490;42.726;23.268;2022-12-15T05:37:42;94481.06;;;3.50;100.00
22647;BME280;11490;42.726;23.268;2022-12-15T05:40:07;94502.38;;;3.42;100.00
22647;BME280;11490;42.726;23.268;2022-12-15T05:42:33;94500.34;;;3.44;100.00
22647;BME280;11490;42.726;23.268;2022-12-15T05:44:58;94516.91;;;3.58;100.00
22647;BME280;11490;42.726;23.268;2022-12-15T05:47:24;94521.84;;;3.47;100.00
22647;BME280;11490;42.726;23.268;2022-12-15T05:49:49;94530.31;;;3.49;100.00
22647;BME280;11490;42.726;23.268;2022-12-15T05:52:15;94533.56;;;3.52;100.00
22647;BME280;11490;42.726;23.268;2022-12-15T05:54:41;94558.75;;;3.47;100.00
22647;BME280;11490;42.726;23.268;2022-12-15T05:57:06;94548.00;;;3.42;100.00
22647;BME280;11490;42.726;23.268;2022-12-15T05:59:32;94562.88;;;3.30;100.00
22647;BME280;11490;42.726;23.268;2022-12-15T06:01:57;94557.66;;;3.17;100.00
22647;BME280;11490;42.726;23.268;2022-12-15T06:04:23;94552.38;;;3.17;100.00
22647;BME280;11490;42.726;23.268;2022-12-15T06:06:48;94560.47;;;3.22;100.00
22647;BME280;11490;42.726;23.268;2022-12-15T06:09:14;94567.16;;;3.25;100.00
22647;BME280;11490;42.726;23.268;2022-12-15T06:11:39;94574.25;;;3.24;100.00
22647;BME280;11490;42.726;23.268;2022-12-15T06:14:05;94573.41;;;3.30;100.00
22647;BME280;11490;42.726;23.268;2022-12-15T06:16:31;94579.88;;;3.34;100.00
22647;BME280;11490;42.726;23.268;2022-12-15T06:18:59;94589.59;;;3.40;100.00
22647;BME280;11490;42.726;23.268;2022-12-15T06:21:28;94604.53;;;3.53;100.00
22647;BME280;11490;42.726;23.268;2022-12-15T06:23:54;94587.19;;;3.32;100.00
22647;BME280;11490;42.726;23.268;2022-12-15T06:26:31;94589.53;;;3.54;100.00
22647;BME280;11490;42.726;23.268;2022-12-15T06:28:58;94587.53;;;3.42;100.00
22647;BME280;11490;42.726;23.268;2022-12-15T06:31:27;94575.13;;;3.49;100.00
22647;BME280;11490;42.726;23.268;2022-12-15T06:33:54;94590.00;;;3.37;100.00
22647;BME280;11490;42.726;23.268;2022-12-15T06:36:20;94595.19;;;3.57;100.00
22647;BME280;11490;42.726;23.268;2022-12-15T06:38:48;94594.81;;;3.54;100.00
22647;BME280;11490;42.726;23.268;2022-12-15T06:41:16;94587.91;;;3.53;100.00
22647;BME280;11490;42.726;23.268;2022-12-15T06:43:42;94595.34;;;3.69;100.00
22647;BME280;11490;42.726;23.268;2022-12-15T06:46:08;94617.47;;;3.68;100.00
22647;BME280;11490;42.726;23.268;2022-12-15T06:48:34;94616.97;;;3.84;100.00
22647;BME280;11490;42.726;23.268;2022-12-15T06:51:05;94608.94;;;3.66;100.00
22647;BME280;11490;42.726;23.268;2022-12-15T06:53:31;94602.00;;;3.78;100.00
22647;BME280;11490;42.726;23.268;2022-12-15T06:56:00;94631.00;;;3.78;100.00
22647;BME280;11490;42.726;23.268;2022-12-15T06:58:27;94616.56;;;3.87;100.00
22647;BME280;11490;42.726;23.268;2022-12-15T07:00:52;94621.84;;;3.87;100.00
22647;BME280;11490;42.726;23.268;2022-12-15T07:03:18;94634.34;;;3.98;100.00
22647;BME280;11490;42.726;23.268;2022-12-15T07:05:45;94638.78;;;4.04;100.00
22647;BME280;11490;42.726;23.268;2022-12-15T07:08:11;94623.41;;;4.01;100.00
22647;BME280;11490;42.726;23.268;2022-12-15T07:10:38;94644.97;;;4.23;100.00
22647;BME280;11490;42.726;23.268;2022-12-15T07:13:04;94652.84;;;4.30;100.00
22647;BME280;11490;42.726;23.268;2022-12-15T07:15:30;94630.97;;;4.22;100.00
22647;BME280;11490;42.726;23.268;2022-12-15T07:17:55;94650.13;;;4.43;100.00
22647;BME280;11490;42.726;23.268;2022-12-15T07:20:21;94650.47;;;4.53;100.00
22647;BME280;11490;42.726;23.268;2022-12-15T07:22:50;94655.06;;;4.64;100.00
22647;BME280;11490;42.726;23.268;2022-12-15T07:25:16;94662.34;;;4.69;100.00
22647;BME280;11490;42.726;23.268;2022-12-15T07:27:43;94677.22;;;4.88;100.00
22647;BME280;11490;42.726;23.268;2022-12-15T07:30:09;94678.94;;;4.76;100.00
22647;BME280;11490;42.726;23.268;2022-12-15T07:32:34;94681.94;;;4.86;100.00
22647;BME280;11490;42.726;23.268;2022-12-15T07:35:01;94669.94;;;4.83;100.00
22647;BME280;11490;42.726;23.268;2022-12-15T07:37:29;94693.88;;;4.88;100.00
22647;BME280;11490;42.726;23.268;2022-12-15T07:39:55;94686.28;;;4.98;100.00
22647;BME280;11490;42.726;23.268;2022-12-15T07:42:20;94668.25;;;4.95;100.00
22647;BME280;11490;42.726;23.268;2022-12-15T07:44:45;94676.75;;;4.97;100.00
22647;BME280;11490;42.726;23.268;2022-12-15T07:47:11;94696.06;;;5.23;100.00
22647;BME280;11490;42.726;23.268;2022-12-15T07:49:36;94665.41;;;4.90;100.00
22647;BME280;11490;42.726;23.268;2022-12-15T07:52:04;94690.44;;;5.13;100.00
22647;BME280;11490;42.726;23.268;2022-12-15T07:54:31;94692.78;;;5.02;100.00
22647;BME280;11490;42.726;23.268;2022-12-15T07:56:57;94700.31;;;4.99;100.00
22647;BME280;11490;42.726;23.268;2022-12-15T07:59:24;94709.31;;;4.91;100.00
22647;BME280;11490;42.726;23.268;2022-12-15T08:01:50;94701.22;;;4.86;100.00
22647;BME280;11490;42.726;23.268;2022-12-15T08:04:16;94710.72;;;4.94;100.00
22647;BME280;11490;42.726;23.268;2022-12-15T08:06:42;94725.13;;;4.98;100.00
22647;BME280;11490;42.726;23.268;2022-12-15T08:09:08;94709.72;;;4.95;100.00
22647;BME280;11490;42.726;23.268;2022-12-15T08:11:35;94704.91;;;4.85;100.00
22647;BME280;11490;42.726;23.268;2022-12-15T08:14:01;94713.84;;;4.84;100.00
22647;BME280;11490;42.726;23.268;2022-12-15T08:16:27;94727.66;;;4.86;100.00
22647;BME280;11490;42.726;23.268;2022-12-15T08:18:53;94718.53;;;4.82;100.00
22647;BME280;11490;42.726;23.268;2022-12-15T08:21:18;94735.88;;;5.03;100.00
22647;BME280;11490;42.726;23.268;2022-12-15T08:23:44;94738.19;;;5.18;100.00
22647;BME280;11490;42.726;23.268;2022-12-15T08:26:12;94743.25;;;5.19;100.00
22647;BME280;11490;42.726;23.268;2022-12-15T08:28:39;94755.38;;;5.27;100.00
22647;BME280;11490;42.726;23.268;2022-12-15T08:31:09;94754.53;;;5.33;100.00
22647;BME280;11490;42.726;23.268;2022-12-15T08:33:35;94739.09;;;5.30;100.00
22647;BME280;11490;42.726;23.268;2022-12-15T08:36:04;94747.94;;;5.42;100.00
22647;BME280;11490;42.726;23.268;2022-12-15T08:38:31;94749.13;;;5.46;100.00
22647;BME280;11490;42.726;23.268;2022-12-15T08:40:56;94719.63;;;5.49;100.00
22647;BME280;11490;42.726;23.268;2022-12-15T08:43:22;94742.34;;;5.57;100.00
22647;BME280;11490;42.726;23.268;2022-12-15T08:45:48;94753.00;;;5.68;100.00
22647;BME280;11490;42.726;23.268;2022-12-15T08:48:13;94747.56;;;5.81;100.00
22647;BME280;11490;42.726;23.268;2022-12-15T08:50:44;94766.06;;;6.06;100.00
22647;BME280;11490;42.726;23.268;2022-12-15T08:53:10;94762.47;;;6.01;100.00
22647;BME280;11490;42.726;23.268;2022-12-15T08:55:35;94779.47;;;6.11;100.00
22647;BME280;11490;42.726;23.268;2022-12-15T08:58:00;94760.41;;;6.03;100.00
22647;BME280;11490;42.726;23.268;2022-12-15T09:00:26;94754.38;;;5.96;100.00
22647;BME280;11490;42.726;23.268;2022-12-15T09:02:51;94743.63;;;6.09;100.00
22647;BME280;11490;42.726;23.268;2022-12-15T09:05:17;94764.22;;;6.25;100.00
22647;BME280;11490;42.726;23.268;2022-12-15T09:07:42;94752.44;;;6.21;100.00
22647;BME280;11490;42.726;23.268;2022-12-15T09:10:08;94730.38;;;6.27;100.00
22647;BME280;11490;42.726;23.268;2022-12-15T09:12:33;94754.78;;;6.47;100.00
22647;BME280;11490;42.726;23.268;2022-12-15T09:14:58;94759.63;;;6.50;100.00
22647;BME280;11490;42.726;23.268;2022-12-15T09:17:24;94761.25;;;6.51;100.00
22647;BME280;11490;42.726;23.268;2022-12-15T09:19:49;94765.91;;;6.56;100.00
22647;BME280;11490;42.726;23.268;2022-12-15T09:22:15;94728.94;;;6.43;100.00
22647;BME280;11490;42.726;23.268;2022-12-15T09:24:42;94741.06;;;6.50;100.00
22647;BME280;11490;42.726;23.268;2022-12-15T09:27:07;94745.09;;;6.41;100.00
22647;BME280;11490;42.726;23.268;2022-12-15T09:29:32;94751.38;;;6.58;100.00
22647;BME280;11490;42.726;23.268;2022-12-15T09:31:58;94758.16;;;6.54;100.00
22647;BME280;11490;42.726;23.268;2022-12-15T09:34:23;94770.38;;;6.55;100.00
22647;BME280;11490;42.726;23.268;2022-12-15T09:36:49;94769.06;;;6.46;100.00
22647;BME280;11490;42.726;23.268;2022-12-15T09:39:14;94771.28;;;6.49;100.00
22647;BME280;11490;42.726;23.268;2022-12-15T09:41:48;94750.75;;;6.45;100.00
22647;BME280;11490;42.726;23.268;2022-12-15T09:44:16;94769.56;;;6.55;100.00
22647;BME280;11490;42.726;23.268;2022-12-15T09:52:05;94761.53;;;6.43;100.00
22647;BME280;11490;42.726;23.268;2022-12-15T09:54:33;94772.13;;;6.43;100.00
22647;BME280;11490;42.726;23.268;2022-12-15T09:57:04;94763.78;;;6.28;100.00
22647;BME280;11490;42.726;23.268;2022-12-15T10:07:52;94767.31;;;6.40;100.00
22647;BME280;11490;42.726;23.268;2022-12-15T10:10:26;94769.50;;;6.43;100.00
22647;BME280;11490;42.726;23.268;2022-12-15T10:12:59;94769.06;;;6.28;100.00
22647;BME280;11490;42.726;23.268;2022-12-15T10:15:29;94769.78;;;6.35;100.00
22647;BME280;11490;42.726;23.268;2022-12-15T10:18:21;94772.44;;;6.53;100.00
22647;BME280;11490;42.726;23.268;2022-12-15T10:20:48;94759.19;;;6.53;100.00
22647;BME280;11490;42.726;23.268;2022-12-15T10:23:16;94786.38;;;6.79;100.00
22647;BME280;11490;42.726;23.268;2022-12-15T10:25:56;94792.53;;;6.91;100.00
22647;BME280;11490;42.726;23.268;2022-12-15T10:34:02;94778.13;;;6.87;100.00
22647;BME280;11490;42.726;23.268;2022-12-15T10:36:33;94782.94;;;6.90;100.00
22647;BME280;11490;42.726;23.268;2022-12-15T10:38:58;94789.25;;;7.07;100.00
22647;BME280;11490;42.726;23.268;2022-12-15T10:41:24;94785.94;;;7.12;100.00
22647;BME280;11490;42.726;23.268;2022-12-15T10:43:51;94791.13;;;7.18;100.00
22647;BME280;11490;42.726;23.268;2022-12-15T10:46:18;94791.56;;;7.15;100.00
22647;BME280;11490;42.726;23.268;2022-12-15T10:48:52;94779.72;;;7.18;100.00
22647;BME280;11490;42.726;23.268;2022-12-15T10:51:36;94786.84;;;7.17;99.80
22647;BME280;11490;42.726;23.268;2022-12-15T10:56:31;94781.34;;;7.19;100.00
22647;BME280;11490;42.726;23.268;2022-12-15T10:59:03;94776.25;;;7.17;100.00
22647;BME280;11490;42.726;23.268;2022-12-15T11:01:45;94770.94;;;7.17;100.00
22647;BME280;11490;42.726;23.268;2022-12-15T11:04:30;94748.06;;;7.05;100.00
22647;BME280;11490;42.726;23.268;2022-12-15T11:07:02;94800.19;;;7.41;100.00
22647;BME280;11490;42.726;23.268;2022-12-15T11:09:37;94798.00;;;7.49;100.00
22647;BME280;11490;42.726;23.268;2022-12-15T11:12:16;94798.34;;;7.53;100.00
22647;BME280;11490;42.726;23.268;2022-12-15T11:15:00;94794.75;;;7.59;99.97
22647;BME280;11490;42.726;23.268;2022-12-15T11:17:38;94788.91;;;7.57;100.00
22647;BME280;11490;42.726;23.268;2022-12-15T11:20:06;94788.66;;;7.70;99.80
22647;BME280;11490;42.726;23.268;2022-12-15T11:22:49;94775.75;;;7.62;99.24
22647;BME280;11490;42.726;23.268;2022-12-15T11:25:24;94794.72;;;7.35;99.27
22647;BME280;11490;42.726;23.268;2022-12-15T11:27:55;94796.81;;;7.33;100.00
22647;BME280;11490;42.726;23.268;2022-12-15T11:30:43;94778.59;;;7.37;100.00
22647;BME280;11490;42.726;23.268;2022-12-15T11:33:11;94783.66;;;7.39;100.00
22647;BME280;11490;42.726;23.268;2022-12-15T11:36:16;94791.97;;;7.30;100.00
22647;BME280;11490;42.726;23.268;2022-12-15T11:38:51;94789.84;;;7.21;100.00
22647;BME280;11490;42.726;23.268;2022-12-15T11:41:41;94801.41;;;7.26;100.00
22647;BME280;11490;42.726;23.268;2022-12-15T11:44:32;94801.38;;;7.15;100.00
22647;BME280;11490;42.726;23.268;2022-12-15T11:47:42;94799.66;;;7.20;100.00
22647;BME280;11490;42.726;23.268;2022-12-15T11:50:10;94804.06;;;7.26;100.00
22647;BME280;11490;42.726;23.268;2022-12-15T11:55:27;94805.13;;;7.37;100.00
22647;BME280;11490;42.726;23.268;2022-12-15T12:01:15;94812.94;;;7.32;100.00
22647;BME280;11490;42.726;23.268;2022-12-15T12:17:42;94821.88;;;7.61;100.00
22647;BME280;11490;42.726;23.268;2022-12-15T12:26:05;94820.78;;;7.80;100.00
22647;BME280;11490;42.726;23.268;2022-12-15T12:29:01;94820.66;;;7.87;100.00
22647;BME280;11490;42.726;23.268;2022-12-15T12:34:12;94841.91;;;7.98;98.65
22647;BME280;11490;42.726;23.268;2022-12-15T12:36:42;94849.41;;;8.01;98.78
22647;BME280;11490;42.726;23.268;2022-12-15T12:39:17;94840.84;;;7.99;98.65
22647;BME280;11490;42.726;23.268;2022-12-15T12:41:50;94850.09;;;8.08;98.47
22647;BME280;11490;42.726;23.268;2022-12-15T12:44:28;94844.09;;;8.01;98.28
22647;BME280;11490;42.726;23.268;2022-12-15T12:46:56;94845.03;;;7.95;98.27
22647;BME280;11490;42.726;23.268;2022-12-15T12:49:34;94847.97;;;7.64;98.07
22647;BME280;11490;42.726;23.268;2022-12-15T12:52:03;94854.00;;;7.71;98.91
22647;BME280;11490;42.726;23.268;2022-12-15T12:56:58;94851.31;;;7.59;98.71
22647;BME280;11490;42.726;23.268;2022-12-15T13:07:32;94855.47;;;7.67;99.15
22647;BME280;11490;42.726;23.268;2022-12-15T13:18:05;94865.56;;;7.35;99.11
22647;BME280;11490;42.726;23.268;2022-12-15T13:20:33;94849.00;;;7.21;99.30
22647;BME280;11490;42.726;23.268;2022-12-15T13:39:02;94879.47;;;7.01;100.00
22647;BME280;11490;42.726;23.268;2022-12-15T13:41:28;94875.72;;;7.08;100.00
22647;BME280;11490;42.726;23.268;2022-12-15T13:43:54;94871.75;;;6.99;100.00
22647;BME280;11490;42.726;23.268;2022-12-15T13:46:23;94885.88;;;7.11;100.00
22647;BME280;11490;42.726;23.268;2022-12-15T13:49:03;94896.50;;;7.11;100.00
22647;BME280;11490;42.726;23.268;2022-12-15T13:51:37;94897.34;;;7.05;100.00
22647;BME280;11490;42.726;23.268;2022-12-15T13:54:21;94895.31;;;7.07;100.00
22647;BME280;11490;42.726;23.268;2022-12-15T13:59:45;94901.25;;;7.21;100.00
22647;BME280;11490;42.726;23.268;2022-12-15T14:02:31;94901.28;;;7.03;99.37
22647;BME280;11490;42.726;23.268;2022-12-15T14:05:15;94905.06;;;6.95;99.83
22647;BME280;11490;42.726;23.268;2022-12-15T14:10:20;94902.25;;;6.72;99.95
22647;BME280;11490;42.726;23.268;2022-12-15T14:12:48;94895.03;;;6.61;100.00
22647;BME280;11490;42.726;23.268;2022-12-15T14:15:16;94922.00;;;6.57;100.00
22647;BME280;11490;42.726;23.268;2022-12-15T14:17:50;94926.22;;;6.58;100.00
22647;BME280;11490;42.726;23.268;2022-12-15T14:20:18;94925.22;;;6.41;100.00
22647;BME280;11490;42.726;23.268;2022-12-15T14:22:44;94939.19;;;6.48;100.00
22647;BME280;11490;42.726;23.268;2022-12-15T14:25:17;94941.09;;;6.41;100.00
22647;BME280;11490;42.726;23.268;2022-12-15T14:27:43;94914.91;;;6.33;100.00
22647;BME280;11490;42.726;23.268;2022-12-15T14:30:24;94928.41;;;6.25;100.00
22647;BME280;11490;42.726;23.268;2022-12-15T14:32:56;94938.72;;;6.33;100.00
22647;BME280;11490;42.726;23.268;2022-12-15T14:35:29;94948.72;;;6.31;100.00
22647;BME280;11490;42.726;23.268;2022-12-15T14:37:57;94926.16;;;6.04;100.00
22647;BME280;11490;42.726;23.268;2022-12-15T14:40:24;94935.53;;;6.00;100.00
22647;BME280;11490;42.726;23.268;2022-12-15T14:42:52;94938.94;;;6.07;100.00
22647;BME280;11490;42.726;23.268;2022-12-15T14:45:27;94964.72;;;6.18;100.00
22647;BME280;11490;42.726;23.268;2022-12-15T14:47:56;94944.94;;;5.96;100.00
22647;BME280;11490;42.726;23.268;2022-12-15T14:50:23;94965.16;;;6.15;100.00
22647;BME280;11490;42.726;23.268;2022-12-15T14:52:56;94960.19;;;6.00;100.00
22647;BME280;11490;42.726;23.268;2022-12-15T14:55:28;94971.66;;;6.19;100.00
22647;BME280;11490;42.726;23.268;2022-12-15T14:57:54;94967.66;;;6.10;100.00
22647;BME280;11490;42.726;23.268;2022-12-15T15:05:53;94969.69;;;6.08;100.00
22647;BME280;11490;42.726;23.268;2022-12-15T15:08:25;94977.50;;;5.96;100.00
22647;BME280;11490;42.726;23.268;2022-12-15T15:10:53;94969.84;;;5.81;100.00
22647;BME280;11490;42.726;23.268;2022-12-15T15:13:22;94985.72;;;5.81;100.00
22647;BME280;11490;42.726;23.268;2022-12-15T15:15:53;94978.72;;;6.00;100.00